Detroit, Michigan
Traffic Map
Current Weather Conditions
Detroit, Michigan
Overcast Snow Showers
Overcast
34°
Feels Like: 27°
Wind Chill: 27° Ceiling: 4200
Heat Index: 34° Visibility: 12mi
Dew Point: 27° Wind: 8mph
Humidity: 75% Direction: 240° (WSW)
Pressure: 30.26in Gusts: 0mph
Raw Report DataCYQG 060300Z 24007KT 12SM -SHSN OVC042 01/M03 A3026 RMK CU8 SLP258
Traffic Incident Summary
Active as of:
Severity:
Category:
InformationThere was an issue retrieving the traffic information for this location. Please try a different location or try again shortly.
Advertisements
Track Severe Weather on mobile